Time;durP1;ratioP1;P1;durP2;ratioP2;P2;SDS_P1;SDS_P2;PMS_P1;PMS_P2;Temp;Humidity;BMP_temperature;BMP_pressure;BME280_temperature;BME280_humidity;BME280_pressure;Samples;Min_cycle;Max_cycle;Signal;HPM_P1;HPM_P2
2023/07/09 00:01:17;;;;;;;14.48;8.20;;;;;;;24.87;100.00;101758.25;5031128;28;20478;-59
2023/07/09 00:03:43;;;;;;;10.93;7.50;;;;;;;24.89;100.00;101760.84;5030255;28;20412;-59
2023/07/09 00:06:09;;;;;;;18.38;8.05;;;;;;;24.90;100.00;101760.72;5030950;28;20104;-59
2023/07/09 00:08:34;;;;;;;12.25;8.05;;;;;;;24.88;100.00;101765.34;5029693;28;20029;-59
2023/07/09 00:10:59;;;;;;;13.95;8.10;;;;;;;24.87;100.00;101758.25;5031211;28;20465;-59
2023/07/09 00:13:27;;;;;;;14.45;7.57;;;;;;;24.86;100.00;101767.28;5031445;28;20477;-60
2023/07/09 00:15:55;;;;;;;13.73;7.30;;;;;;;24.84;100.00;101767.41;5030753;28;20041;-58
2023/07/09 00:18:20;;;;;;;9.57;7.10;;;;;;;24.83;100.00;101772.94;5012099;28;20091;-58
2023/07/09 00:20:48;;;;;;;13.70;7.22;;;;;;;24.83;100.00;101776.47;5030688;28;20025;-58
2023/07/09 00:23:13;;;;;;;12.15;7.40;;;;;;;24.80;100.00;101778.56;5030737;28;20021;-59
2023/07/09 00:25:46;;;;;;;10.90;7.78;;;;;;;24.82;100.00;101792.75;5030373;28;20053;-59
2023/07/09 00:28:16;;;;;;;10.40;6.97;;;;;;;24.78;100.00;101786.78;5029435;28;20037;-59
2023/07/09 00:30:41;;;;;;;10.38;6.80;;;;;;;24.74;100.00;101783.47;5030551;28;20049;-59
2023/07/09 00:33:19;;;;;;;13.15;7.25;;;;;;;24.72;100.00;101781.88;5029841;28;20532;-61
2023/07/09 00:35:46;;;;;;;12.02;7.57;;;;;;;24.69;100.00;101790.22;5030176;28;20497;-59
2023/07/09 00:38:22;;;;;;;12.57;7.03;;;;;;;24.63;100.00;101788.00;5029039;28;20036;-59
2023/07/09 00:41:04;;;;;;;9.93;7.40;;;;;;;24.59;100.00;101782.00;5030345;28;20079;-59
2023/07/09 00:43:37;;;;;;;14.07;7.15;;;;;;;24.54;100.00;101789.59;5030385;28;20370;-60
2023/07/09 00:46:24;;;;;;;11.68;7.10;;;;;;;24.50;100.00;101782.72;5030270;28;20037;-59
2023/07/09 00:48:54;;;;;;;12.77;6.60;;;;;;;24.50;100.00;101788.13;5014978;28;20026;-60
2023/07/09 00:51:21;;;;;;;16.35;6.80;;;;;;;24.47;100.00;101783.84;5009097;28;20409;-59
2023/07/09 00:53:51;;;;;;;11.88;6.63;;;;;;;24.44;100.00;101779.53;5009985;28;20382;-59
2023/07/09 00:56:34;;;;;;;11.45;7.20;;;;;;;24.41;100.00;101785.16;5021647;28;20103;-59
2023/07/09 00:59:04;;;;;;;14.23;7.45;;;;;;;24.41;100.00;101785.16;4988865;28;20048;-59
2023/07/09 01:01:31;;;;;;;13.50;7.70;;;;;;;24.39;100.00;101784.44;5004527;28;20058;-60
2023/07/09 01:03:59;;;;;;;10.27;7.10;;;;;;;24.37;100.00;101783.69;4989180;28;20022;-59
2023/07/09 01:06:34;;;;;;;15.18;7.05;;;;;;;24.36;100.00;101771.22;4989602;28;20510;-59
2023/07/09 01:09:01;;;;;;;10.25;7.05;;;;;;;24.36;100.00;101776.59;5002885;28;20034;-59
2023/07/09 01:11:27;;;;;;;10.70;6.85;;;;;;;24.35;100.00;101785.66;5008324;28;20030;-60
2023/07/09 01:13:55;;;;;;;12.38;7.38;;;;;;;24.36;100.00;101781.97;5009164;28;20040;-59
2023/07/09 01:16:23;;;;;;;18.58;7.60;;;;;;;24.40;100.00;101779.88;5010173;28;20556;-59
2023/07/09 01:18:49;;;;;;;13.15;7.47;;;;;;;24.41;100.00;101784.31;5018469;28;20060;-59
2023/07/09 01:21:15;;;;;;;12.82;7.28;;;;;;;24.40;100.00;101788.84;5028714;28;20507;-59
2023/07/09 01:23:51;;;;;;;13.20;7.95;;;;;;;24.40;100.00;101799.59;5028301;28;20108;-59
2023/07/09 01:26:20;;;;;;;12.07;7.13;;;;;;;24.42;100.00;101797.66;5029568;28;20079;-60
2023/07/09 01:28:45;;;;;;;;;;;;;;;24.41;100.00;101795.91;5016332;28;20029;-59
2023/07/09 01:31:12;;;;;;;11.48;7.22;;;;;;;24.38;100.00;101806.09;5009344;28;20009;-59
2023/07/09 01:33:39;;;;;;;13.20;8.05;;;;;;;24.34;100.00;101803.63;5009026;28;20543;-61
2023/07/09 01:36:13;;;;;;;12.65;7.15;;;;;;;24.31;100.00;101801.19;5010031;28;20021;-60
2023/07/09 01:38:39;;;;;;;12.77;8.05;;;;;;;24.32;100.00;101802.88;5028126;28;20032;-60
2023/07/09 01:41:04;;;;;;;11.52;7.50;;;;;;;24.32;100.00;101807.44;5029110;28;20211;-59
2023/07/09 01:43:31;;;;;;;12.98;8.70;;;;;;;24.28;100.00;101801.41;5029291;28;20133;-59
2023/07/09 01:45:57;;;;;;;11.65;7.35;;;;;;;24.25;100.00;101801.66;5029625;28;20033;-59
2023/07/09 01:48:26;;;;;;;14.60;8.18;;;;;;;24.24;100.00;101805.34;5028555;28;20393;-59
2023/07/09 01:50:53;;;;;;;11.65;7.80;;;;;;;24.23;100.00;101800.94;5028354;28;20132;-59
2023/07/09 01:53:23;;;;;;;11.52;7.93;;;;;;;24.19;100.00;101813.75;5028921;28;20063;-59
2023/07/09 01:55:50;;;;;;;14.82;7.85;;;;;;;24.20;100.00;101811.94;5028430;28;20044;-59
2023/07/09 01:58:16;;;;;;;15.65;8.00;;;;;;;24.17;100.00;101813.00;5029152;28;20389;-60
2023/07/09 02:00:41;;;;;;;12.57;8.00;;;;;;;24.13;100.00;101807.94;5028321;28;20029;-60
2023/07/09 02:03:06;;;;;;;14.95;7.88;;;;;;;24.13;100.00;101816.03;5027780;28;20025;-59
2023/07/09 02:05:32;;;;;;;13.43;7.22;;;;;;;24.10;100.00;101809.03;5028647;28;20030;-60
2023/07/09 02:07:58;;;;;;;13.32;8.02;;;;;;;24.09;100.00;101810.03;5029438;28;20482;-60
2023/07/09 02:10:23;;;;;;;13.50;8.25;;;;;;;24.09;100.00;101812.72;5028736;28;20030;-60
2023/07/09 02:12:49;;;;;;;14.23;8.13;;;;;;;24.05;100.00;101811.25;5028038;28;20657;-60
2023/07/09 02:15:15;;;;;;;13.00;8.93;;;;;;;24.05;100.00;101803.19;5028327;28;20382;-60
2023/07/09 02:17:41;;;;;;;12.68;8.00;;;;;;;24.06;100.00;101804.88;5028059;28;20500;-60
2023/07/09 02:20:08;;;;;;;10.57;7.45;;;;;;;24.10;100.00;101803.66;5028262;28;20042;-59
2023/07/09 02:22:34;;;;;;;18.10;8.50;;;;;;;24.11;100.00;101810.78;5028891;28;20505;-60
2023/07/09 02:25:00;;;;;;;13.70;8.65;;;;;;;24.10;100.00;101807.22;5028239;28;20029;-61
2023/07/09 02:27:25;;;;;;;15.57;9.05;;;;;;;24.10;100.00;101803.66;5029106;28;20482;-60
2023/07/09 02:29:51;;;;;;;12.15;8.00;;;;;;;24.13;100.00;101798.06;5028930;28;20036;-60
2023/07/09 02:32:19;;;;;;;13.95;7.93;;;;;;;24.10;100.00;101806.34;5022650;28;20053;-60
2023/07/09 02:34:48;;;;;;;13.98;7.43;;;;;;;24.07;100.00;101804.75;5012700;28;20026;-60
2023/07/09 02:37:14;;;;;;;;;;;;;;;24.08;100.00;101802.94;5012645;28;20022;-60
2023/07/09 02:39:39;;;;;;;11.85;7.38;;;;;;;24.04;100.00;101804.13;5012886;28;19913;-60
2023/07/09 02:42:05;;;;;;;12.25;7.97;;;;;;;23.95;100.00;101801.19;5028192;28;20455;-60
2023/07/09 02:44:30;;;;;;;11.63;7.50;;;;;;;23.89;100.00;101796.25;5032472;28;20044;-60
2023/07/09 02:46:55;;;;;;;13.77;8.10;;;;;;;23.84;100.00;101801.16;5032355;28;20136;-60
2023/07/09 02:49:22;;;;;;;11.52;8.25;;;;;;;23.78;100.00;101798.91;5031828;28;20088;-60
2023/07/09 02:51:47;;;;;;;15.45;9.13;;;;;;;23.75;100.00;101801.84;5032451;28;20458;-60
2023/07/09 02:54:13;;;;;;;17.17;8.43;;;;;;;23.74;100.00;101798.28;5032683;28;20037;-60
2023/07/09 02:56:38;;;;;;;14.63;8.10;;;;;;;23.72;100.00;101797.56;5032302;28;20573;-61
2023/07/09 02:59:04;;;;;;;14.93;8.30;;;;;;;23.71;100.00;101809.25;5032709;28;20546;-59
2023/07/09 03:01:30;;;;;;;13.80;8.35;;;;;;;23.66;100.00;101806.06;5031930;28;20025;-60
2023/07/09 03:03:56;;;;;;;19.90;8.45;;;;;;;23.64;100.00;101802.63;5032542;28;20424;-60
2023/07/09 03:06:23;;;;;;;12.05;7.90;;;;;;;23.61;100.00;101798.34;5032432;28;20113;-57
2023/07/09 03:08:49;;;;;;;12.57;7.82;;;;;;;23.61;100.00;101795.66;5032536;28;20562;-60
2023/07/09 03:11:15;;;;;;;17.08;8.77;;;;;;;23.53;100.00;101798.91;5032902;28;20109;-59
2023/07/09 03:13:40;;;;;;;11.95;8.70;;;;;;;23.47;100.00;101800.22;5032608;28;20061;-61
2023/07/09 03:16:06;;;;;;;11.98;8.02;;;;;;;23.42;100.00;101804.25;5032731;28;20147;-60
2023/07/09 03:18:31;;;;;;;12.25;8.52;;;;;;;23.39;100.00;101805.31;5031937;28;20474;-60
2023/07/09 03:20:58;;;;;;;13.52;8.98;;;;;;;23.34;100.00;101808.31;5031524;28;20104;-59
2023/07/09 03:23:23;;;;;;;10.98;8.27;;;;;;;23.34;100.00;101811.00;5032673;28;20375;-59
2023/07/09 03:25:48;;;;;;;13.77;8.93;;;;;;;23.32;100.00;101799.50;5032331;28;20034;-60
2023/07/09 03:28:15;;;;;;;13.23;8.32;;;;;;;23.29;100.00;101804.22;5032434;28;20504;-59
2023/07/09 03:30:42;;;;;;;13.55;8.80;;;;;;;23.26;100.00;101804.47;5031796;28;20057;-60
2023/07/09 03:33:07;;;;;;;20.15;8.60;;;;;;;23.23;100.00;101809.09;5031576;28;20030;-59
2023/07/09 03:35:34;;;;;;;13.07;8.57;;;;;;;23.25;100.00;101806.31;5031611;28;20060;-60
2023/07/09 03:38:00;;;;;;;12.90;9.15;;;;;;;23.23;100.00;101811.78;5030832;28;20064;-61
2023/07/09 03:40:25;;;;;;;15.52;9.20;;;;;;;23.24;100.00;101812.66;5032414;28;20048;-59
2023/07/09 03:42:51;;;;;;;15.38;9.68;;;;;;;23.27;100.00;101820.47;5031632;28;20047;-59
2023/07/09 03:45:16;;;;;;;15.63;8.77;;;;;;;23.32;100.00;101820.13;5032012;28;20079;-59
2023/07/09 03:47:41;;;;;;;19.38;8.93;;;;;;;23.33;100.00;101824.56;5030496;28;20030;-59
2023/07/09 03:50:09;;;;;;;11.75;8.93;;;;;;;23.33;100.00;101819.19;5031285;28;20047;-60
2023/07/09 03:52:35;;;;;;;15.07;9.88;;;;;;;23.33;100.00;101827.25;5031364;28;20025;-59
2023/07/09 03:55:02;;;;;;;12.30;9.13;;;;;;;23.33;100.00;101833.47;5031687;28;20034;-59
2023/07/09 03:57:27;;;;;;;14.27;8.80;;;;;;;23.34;100.00;101828.97;5031902;28;20108;-59
2023/07/09 03:59:53;;;;;;;16.83;10.25;;;;;;;23.34;100.00;101828.97;5030549;28;20120;-60
2023/07/09 04:02:18;;;;;;;14.65;9.73;;;;;;;23.34;100.00;101827.16;5011058;28;20429;-60
2023/07/09 04:04:44;;;;;;;14.15;9.65;;;;;;;23.36;100.00;101824.34;5011820;28;20025;-58
2023/07/09 04:07:09;;;;;;;17.60;9.35;;;;;;;23.39;100.00;101832.19;5012139;28;20478;-59
2023/07/09 04:09:35;;;;;;;15.65;9.57;;;;;;;23.41;100.00;101824.00;5011850;28;20033;-60
2023/07/09 04:12:01;;;;;;;14.00;9.32;;;;;;;23.44;100.00;101813.03;5011153;28;20030;-60
2023/07/09 04:14:27;;;;;;;18.08;10.43;;;;;;;23.45;100.00;101809.41;5011540;28;20038;-59
2023/07/09 04:16:52;;;;;;;14.13;10.13;;;;;;;23.49;100.00;101813.56;5011079;28;20107;-60
2023/07/09 04:19:18;;;;;;;14.45;10.07;;;;;;;23.53;100.00;101817.75;5009013;28;20822;-60
2023/07/09 04:21:43;;;;;;;14.85;10.20;;;;;;;23.57;100.00;101818.38;5010996;28;20039;-60
2023/07/09 04:24:08;;;;;;;17.58;11.30;;;;;;;23.60;100.00;101812.78;5011072;28;20520;-59
2023/07/09 04:26:35;;;;;;;15.63;9.27;;;;;;;23.63;100.00;101817.06;5009388;28;20030;-59
2023/07/09 04:29:00;;;;;;;20.25;9.60;;;;;;;23.64;100.00;101825.03;5010551;28;20501;-59
2023/07/09 04:31:27;;;;;;;19.98;10.02;;;;;;;23.69;100.00;101819.31;5011187;28;20050;-60
2023/07/09 04:33:52;;;;;;;14.02;9.40;;;;;;;23.72;100.00;101817.22;5009695;28;20077;-61
2023/07/09 04:36:18;;;;;;;15.35;9.25;;;;;;;23.77;100.00;101818.69;5010783;28;20040;-58
2023/07/09 04:38:43;;;;;;;16.23;9.70;;;;;;;23.81;100.00;101812.97;5010547;28;20033;-58
2023/07/09 04:41:08;;;;;;;11.98;8.38;;;;;;;23.88;100.00;101809.81;5010792;28;20029;-63
2023/07/09 04:43:34;;;;;;;13.43;8.80;;;;;;;23.94;100.00;101815.63;5009603;28;20036;-62
2023/07/09 04:45:59;;;;;;;12.38;9.30;;;;;;;23.96;100.00;101823.56;5009909;28;20199;-61
2023/07/09 04:48:25;;;;;;;13.43;9.60;;;;;;;23.98;100.00;101819.78;5009248;28;20481;-61
2023/07/09 04:50:50;;;;;;;16.05;9.23;;;;;;;24.05;100.00;101824.72;5009972;28;20042;-60
2023/07/09 04:53:16;;;;;;;14.85;9.20;;;;;;;24.14;100.00;101824.00;5009434;28;20816;-61
2023/07/09 04:55:41;;;;;;;13.75;9.25;;;;;;;24.22;100.00;101832.38;5009306;28;20029;-61
2023/07/09 04:58:07;;;;;;;17.40;9.95;;;;;;;24.30;100.00;101845.25;5009345;28;20386;-63
2023/07/09 05:00:32;;;;;;;19.10;10.57;;;;;;;24.27;100.00;101836.53;5010210;28;20160;-61
2023/07/09 05:02:58;;;;;;;16.42;9.63;;;;;;;24.22;100.00;101842.28;5009384;28;20130;-60
2023/07/09 05:05:23;;;;;;;19.48;9.75;;;;;;;24.03;100.00;101843.66;5010007;28;20048;-61
2023/07/09 05:07:49;;;;;;;12.68;9.60;;;;;;;24.12;100.00;101834.03;5009947;28;20026;-61
2023/07/09 05:10:14;;;;;;;15.75;9.90;;;;;;;24.26;100.00;101840.22;5013014;28;20171;-59
2023/07/09 05:12:50;;;;;;;17.23;10.02;;;;;;;24.18;100.00;101844.38;5022655;28;20022;-59
2023/07/09 05:15:18;;;;;;;17.08;10.98;;;;;;;24.30;100.00;101842.56;5009905;28;20022;-59
2023/07/09 05:17:43;;;;;;;16.40;11.38;;;;;;;24.30;100.00;101839.00;5008350;28;20041;-59
2023/07/09 05:20:09;;;;;;;17.63;10.43;;;;;;;24.35;100.00;101845.75;5009854;28;20030;-59
2023/07/09 05:22:34;;;;;;;19.02;12.85;;;;;;;24.44;100.00;101844.16;5009496;28;20079;-60
2023/07/09 05:25:00;;;;;;;19.20;11.70;;;;;;;24.42;100.00;101839.88;5009329;28;20052;-59
2023/07/09 05:27:25;;;;;;;21.67;13.32;;;;;;;24.51;100.00;101843.69;5011458;28;20057;-61
2023/07/09 05:29:50;;;;;;;16.30;12.45;;;;;;;24.50;100.00;101848.22;5014184;28;20057;-60
2023/07/09 05:32:16;;;;;;;20.50;11.40;;;;;;;24.72;100.00;101847.38;5008946;28;20018;-60
2023/07/09 05:34:41;;;;;;;15.73;10.45;;;;;;;24.92;100.00;101852.22;5009642;28;20112;-62
2023/07/09 05:37:07;;;;;;;22.80;11.85;;;;;;;24.98;100.00;101852.59;5009681;28;20029;-59
2023/07/09 05:39:32;;;;;;;16.83;11.65;;;;;;;25.04;100.00;101845.00;5009494;28;20113;-59
2023/07/09 05:41:57;;;;;;;20.42;13.25;;;;;;;25.12;100.00;101842.53;5010243;28;20355;-61
2023/07/09 05:44:23;;;;;;;18.48;14.93;;;;;;;24.99;100.00;101831.88;5009970;28;20038;-60
2023/07/09 05:46:48;;;;;;;21.75;15.43;;;;;;;25.09;100.00;101840.06;5009113;28;20040;-59
2023/07/09 05:49:13;;;;;;;20.73;15.18;;;;;;;25.32;100.00;101845.47;5009910;28;20029;-60
2023/07/09 05:51:39;;;;;;;21.50;16.63;;;;;;;25.38;100.00;101841.41;5007541;28;20497;-59
2023/07/09 05:54:04;;;;;;;25.02;19.05;;;;;;;25.24;100.00;101848.78;4997135;28;20470;-58
2023/07/09 05:56:30;;;;;;;30.25;20.65;;;;;;;25.41;100.00;101846.53;4991068;28;20117;-63
2023/07/09 05:58:56;;;;;;;28.52;19.40;;;;;;;25.58;100.00;101853.22;4996684;28;20030;-60
2023/07/09 06:01:22;;;;;;;24.50;18.70;;;;;;;25.70;100.00;101852.25;4998615;28;20398;-59
2023/07/09 06:03:47;;;;;;;32.70;22.05;;;;;;;25.34;100.00;101849.72;5001160;28;20034;-61
2023/07/09 06:06:13;;;;;;;35.08;21.30;;;;;;;25.64;100.00;101838.44;5002024;28;20041;-60
2023/07/09 06:08:38;;;;;;;34.03;23.42;;;;;;;25.51;100.00;101852.03;5001320;28;20056;-60
2023/07/09 06:11:04;;;;;;;30.40;22.35;;;;;;;25.76;100.00;101850.03;5027859;28;20176;-62
2023/07/09 06:13:30;;;;;;;34.47;23.63;;;;;;;25.79;100.00;101849.78;5027644;28;20036;-62
2023/07/09 06:15:57;;;;;;;30.23;21.38;;;;;;;25.87;100.00;101841.91;5029402;28;20025;-61
2023/07/09 06:18:24;;;;;;;36.15;24.05;;;;;;;25.92;100.00;101861.28;5028651;28;20036;-61
2023/07/09 06:20:52;;;;;;;30.42;23.42;;;;;;;25.85;100.00;101857.34;5028965;28;20065;-60
2023/07/09 06:23:17;;;;;;;31.98;23.90;;;;;;;26.06;100.00;101867.31;5011498;28;20047;-61
2023/07/09 06:25:47;;;;;;;30.35;21.98;;;;;;;26.20;100.00;101861.63;5028750;28;20381;-60
2023/07/09 06:28:13;;;;;;;33.05;21.55;;;;;;;26.39;100.00;101868.19;5029218;28;20033;-62
2023/07/09 06:30:38;;;;;;;25.83;20.25;;;;;;;26.59;100.00;101869.19;5029244;28;20429;-61
2023/07/09 06:33:03;;;;;;;27.33;20.33;;;;;;;26.72;100.00;101868.94;5028658;28;20026;-61
2023/07/09 06:35:29;;;;;;;30.45;21.83;;;;;;;26.79;100.00;101873.81;5029027;28;20026;-61
2023/07/09 06:37:54;;;;;;;26.85;19.95;;;;;;;26.84;98.42;101866.16;5027661;28;20040;-61
2023/07/09 06:40:20;;;;;;;27.13;20.30;;;;;;;26.82;97.61;101879.81;5028416;28;20108;-61
2023/07/09 06:42:45;;;;;;;32.42;21.23;;;;;;;26.81;98.33;101886.22;5027092;28;20025;-62
2023/07/09 06:45:11;;;;;;;32.03;23.83;;;;;;;26.78;99.50;101907.25;5028682;28;20013;-60
2023/07/09 06:47:36;;;;;;;28.25;23.27;;;;;;;26.73;99.47;101903.09;5027616;28;20045;-61
2023/07/09 06:50:02;;;;;;;30.00;22.63;;;;;;;26.67;100.00;101906.31;5028666;28;20049;-66
2023/07/09 06:52:27;;;;;;;29.05;22.73;;;;;;;26.75;100.00;101902.97;5027420;28;20116;-65
2023/07/09 06:54:52;;;;;;;28.75;23.27;;;;;;;26.66;100.00;101907.31;5028443;28;20123;-66
2023/07/09 06:57:18;;;;;;;36.28;25.42;;;;;;;26.70;100.00;101903.34;5026640;28;20032;-62
2023/07/09 06:59:43;;;;;;;39.67;24.95;;;;;;;26.66;100.00;101906.47;5019115;28;20065;-67
2023/07/09 07:02:08;;;;;;;33.10;24.45;;;;;;;26.83;100.00;101919.38;5007845;28;20030;-65
2023/07/09 07:04:34;;;;;;;28.52;22.65;;;;;;;26.85;100.00;101921.97;5007078;28;20153;-65
2023/07/09 07:06:59;;;;;;;26.35;19.80;;;;;;;26.81;99.12;101923.19;5007597;28;20030;-66
2023/07/09 07:09:25;;;;;;;20.67;15.02;;;;;;;26.75;94.47;101930.84;5008804;28;20452;-64
2023/07/09 07:11:50;;;;;;;18.05;11.75;;;;;;;26.55;90.17;101935.25;5008493;28;20097;-63
2023/07/09 07:14:16;;;;;;;21.08;10.50;;;;;;;26.44;89.45;101925.41;5008693;28;20026;-62
2023/07/09 07:16:41;;;;;;;20.15;11.93;;;;;;;26.55;87.21;101935.25;5007638;28;20113;-65
2023/07/09 07:19:06;;;;;;;18.83;11.75;;;;;;;26.60;87.17;101924.06;5013302;28;20040;-62
2023/07/09 07:21:32;;;;;;;15.90;12.15;;;;;;;26.46;89.80;101926.09;5031538;28;20084;-66
2023/07/09 07:23:57;;;;;;;21.33;14.10;;;;;;;26.15;93.79;101919.72;5031667;28;20643;-64
2023/07/09 07:26:23;;;;;;;22.98;14.50;;;;;;;26.23;94.54;101922.63;5031911;28;20033;-64
2023/07/09 07:28:50;;;;;;;22.25;16.30;;;;;;;26.24;95.24;101917.09;5010010;28;20117;-64
2023/07/09 07:31:15;;;;;;;20.35;13.80;;;;;;;26.38;95.17;101909.69;4992376;28;20375;-63
2023/07/09 07:33:41;;;;;;;19.35;13.93;;;;;;;26.20;95.96;101907.53;4991400;28;20037;-64
2023/07/09 07:36:08;;;;;;;18.70;12.38;;;;;;;26.43;95.12;101906.59;4992619;28;20459;-62
2023/07/09 07:38:33;;;;;;;16.42;10.20;;;;;;;26.27;94.38;101894.38;4990271;28;20516;-63
2023/07/09 07:40:58;;;;;;;17.38;9.43;;;;;;;26.20;93.41;101891.34;5025335;28;20048;-64
2023/07/09 07:43:24;;;;;;;12.93;8.35;;;;;;;26.33;93.69;101884.91;5030437;28;20052;-63
2023/07/09 07:45:49;;;;;;;13.15;9.35;;;;;;;26.06;95.08;101884.41;5030164;28;20036;-63
2023/07/09 07:48:15;;;;;;;12.40;9.10;;;;;;;26.02;95.24;101872.16;5030350;28;20032;-64
2023/07/09 07:50:40;;;;;;;17.75;8.55;;;;;;;26.02;96.18;101882.06;5029571;28;20045;-62
2023/07/09 07:53:07;;;;;;;16.65;8.75;;;;;;;26.17;93.59;101880.78;5028876;28;20018;-64
2023/07/09 07:55:33;;;;;;;11.98;7.50;;;;;;;26.03;94.17;101886.50;5027692;28;20634;-63
2023/07/09 07:57:59;;;;;;;13.77;7.90;;;;;;;26.12;93.79;101883.00;5029226;28;20029;-63
2023/07/09 08:00:25;;;;;;;11.93;6.85;;;;;;;26.21;93.94;101887.66;5028418;28;20025;-63
2023/07/09 08:02:50;;;;;;;11.32;6.82;;;;;;;26.41;92.65;101886.97;5028174;28;20036;-64
2023/07/09 08:05:16;;;;;;;11.27;6.63;;;;;;;26.42;92.73;101886.81;5028603;28;20025;-63
2023/07/09 08:07:41;;;;;;;9.75;6.53;;;;;;;26.61;92.79;101886.09;5029432;28;20025;-63
2023/07/09 08:10:08;;;;;;;13.07;6.38;;;;;;;26.68;91.87;101886.44;5030998;28;20057;-64
2023/07/09 08:12:33;;;;;;;10.02;6.00;;;;;;;27.08;89.35;101884.81;5028472;28;20473;-63
2023/07/09 08:14:58;;;;;;;12.60;6.22;;;;;;;27.15;88.80;101876.97;5030652;28;20025;-63
2023/07/09 08:17:24;;;;;;;12.57;6.30;;;;;;;27.11;90.06;101870.13;5030176;28;20025;-63
2023/07/09 08:19:52;;;;;;;13.52;6.28;;;;;;;27.25;88.58;101863.50;5029212;28;20032;-63
2023/07/09 08:22:21;;;;;;;8.82;5.80;;;;;;;27.31;89.14;101870.22;5030801;28;20033;-63
2023/07/09 08:24:50;;;;;;;5.68;4.85;;;;;;;27.48;90.08;101868.69;5030208;28;20062;-62
2023/07/09 08:27:15;;;;;;;11.25;6.18;;;;;;;27.34;88.47;101875.34;5030506;28;20064;-64
2023/07/09 08:29:42;;;;;;;9.05;6.00;;;;;;;27.41;88.76;101865.69;5029355;28;20056;-63
2023/07/09 08:32:08;;;;;;;11.25;5.38;;;;;;;27.93;86.15;101870.03;5029896;28;20017;-63
2023/07/09 08:34:33;;;;;;;11.10;5.15;;;;;;;27.88;87.17;101875.03;5030080;28;20029;-62
2023/07/09 08:36:59;;;;;;;10.07;5.45;;;;;;;28.19;85.24;101868.59;5030186;28;20385;-63
2023/07/09 08:39:24;;;;;;;8.02;4.82;;;;;;;28.31;85.49;101869.34;5030727;28;20083;-63
2023/07/09 08:42:03;;;;;;;10.32;5.18;;;;;;;27.99;87.75;101863.22;5029945;28;20025;-62
2023/07/09 08:44:32;;;;;;;;;;;;;;;27.79;89.08;101856.94;5030323;28;20029;-64
2023/07/09 08:47:16;;;;;;;9.50;5.05;;;;;;;27.90;87.85;101861.34;5028313;28;19920;-63
2023/07/09 08:49:48;;;;;;;14.70;5.63;;;;;;;27.62;89.56;101864.72;5029748;28;20045;-62
2023/07/09 08:52:28;;;;;;;9.48;5.65;;;;;;;28.09;89.98;101874.03;4997873;28;20038;-62
2023/07/09 08:54:56;;;;;;;10.63;6.25;;;;;;;28.22;86.31;101871.03;5014555;28;20041;-64
2023/07/09 08:57:25;;;;;;;11.48;6.40;;;;;;;28.06;89.28;101866.19;4993831;28;20030;-62
2023/07/09 08:59:59;;;;;;;11.35;6.75;;;;;;;28.18;86.58;101872.31;5018040;28;20482;-63
2023/07/09 09:02:35;;;;;;;9.98;7.93;;;;;;;28.23;85.79;101879.00;5014343;28;20433;-64
2023/07/09 09:05:04;;;;;;;13.73;7.85;;;;;;;28.51;84.45;101879.13;5006996;28;20371;-62
2023/07/09 09:07:43;;;;;;;12.07;7.25;;;;;;;28.81;84.18;101889.06;5007280;28;20040;-64
2023/07/09 09:10:15;;;;;;;9.98;6.68;;;;;;;28.84;83.73;101894.19;5009742;28;20124;-64
2023/07/09 09:12:59;;;;;;;13.80;6.32;;;;;;;29.14;82.77;101911.22;5029045;28;20061;-62
2023/07/09 09:15:25;;;;;;;10.05;6.05;;;;;;;29.26;81.59;101907.31;5026464;28;20033;-64
2023/07/09 09:17:54;;;;;;;12.93;5.70;;;;;;;29.34;80.69;101894.84;5026682;28;20083;-61
2023/07/09 09:20:22;;;;;;;10.00;5.72;;;;;;;29.39;80.45;101898.81;5027236;28;20572;-63
2023/07/09 09:22:52;;;;;;;8.70;5.90;;;;;;;29.07;81.83;101899.28;5027602;28;20025;-62
2023/07/09 09:25:25;;;;;;;10.30;5.75;;;;;;;29.31;79.42;101900.59;5027254;28;20029;-62
2023/07/09 09:27:51;;;;;;;12.75;5.47;;;;;;;29.26;81.77;101901.03;5028006;28;20374;-62
2023/07/09 09:30:23;;;;;;;10.15;5.43;;;;;;;29.38;82.07;101894.38;5028126;28;20025;-63
2023/07/09 09:32:54;;;;;;;12.25;5.97;;;;;;;29.67;80.20;101897.94;5028531;28;20429;-63
2023/07/09 09:35:24;;;;;;;9.32;5.85;;;;;;;29.67;79.18;101897.94;5027618;28;20072;-65
2023/07/09 09:37:52;;;;;;;10.18;5.47;;;;;;;29.76;79.49;101879.88;5027442;28;20029;-62
2023/07/09 09:40:21;;;;;;;11.57;5.45;;;;;;;29.48;81.94;101877.19;5025008;28;20168;-63
2023/07/09 09:42:47;;;;;;;9.25;5.13;;;;;;;29.57;80.06;101879.03;5008012;28;20021;-63
2023/07/09 09:45:15;;;;;;;9.68;5.00;;;;;;;29.77;78.63;101881.59;5007774;28;20052;-62
2023/07/09 09:47:41;;;;;;;;;;;;;;;29.90;78.11;101875.78;5028511;28;20068;-63
2023/07/09 09:50:06;;;;;;;6.73;5.33;;;;;;;29.81;78.95;101876.69;5027762;28;19953;-62
2023/07/09 09:52:34;;;;;;;5.78;4.78;;;;;;;29.41;80.18;101885.09;5027980;28;20030;-62
2023/07/09 09:55:11;;;;;;;7.15;5.28;;;;;;;29.51;80.42;101883.19;5026449;28;20104;-62
2023/07/09 09:57:36;;;;;;;9.77;6.18;;;;;;;29.43;81.62;101882.25;5025345;28;20033;-62
2023/07/09 10:00:03;;;;;;;8.05;5.63;;;;;;;29.62;78.78;101886.72;5027785;28;20022;-61
2023/07/09 10:02:28;;;;;;;6.78;5.30;;;;;;;29.80;79.44;101858.72;5026492;28;20114;-63
2023/07/09 10:04:54;;;;;;;8.30;5.22;;;;;;;30.10;78.83;101860.13;5028049;28;20117;-62
2023/07/09 10:07:28;;;;;;;9.43;5.32;;;;;;;29.94;78.14;101855.44;5027282;28;20033;-61
2023/07/09 10:09:54;;;;;;;8.13;5.60;;;;;;;30.16;78.50;101866.88;5023818;28;20033;-62
2023/07/09 10:12:41;;;;;;;8.35;5.53;;;;;;;30.16;79.74;101875.03;5009837;28;20034;-62
2023/07/09 10:15:48;;;;;;;7.72;4.93;;;;;;;30.09;81.09;101885.63;4988073;28;20085;-63
2023/07/09 10:18:50;;;;;;;12.32;5.32;;;;;;;30.68;74.85;101891.50;4990960;28;20117;-62
2023/07/09 10:21:54;;;;;;;12.35;5.22;;;;;;;31.22;73.62;101890.44;5006163;28;20033;-61
2023/07/09 10:24:35;;;;;;;5.03;3.63;;;;;;;31.21;75.86;101886.00;5020396;28;20041;-61
2023/07/09 10:27:15;;;;;;;5.10;2.83;;;;;;;31.25;76.86;101898.28;5027460;28;20045;-62
2023/07/09 10:29:50;;;;;;;6.57;2.92;;;;;;;31.55;75.25;101885.13;5010753;28;20025;-63
2023/07/09 10:32:44;;;;;;;6.95;3.15;;;;;;;31.75;73.94;101880.19;5026682;28;20116;-62
2023/07/09 10:35:24;;;;;;;7.10;2.92;;;;;;;31.61;74.45;101872.69;5007511;28;20145;-63
2023/07/09 10:38:05;;;;;;;4.13;3.05;;;;;;;31.36;76.79;101878.09;5005417;28;20025;-63
2023/07/09 10:40:46;;;;;;;6.55;3.15;;;;;;;31.49;76.10;101864.84;5011617;28;20095;-62
2023/07/09 10:43:20;;;;;;;4.82;3.47;;;;;;;31.96;75.38;101862.53;5024514;28;20033;-60
2023/07/09 10:45:49;;;;;;;5.43;3.15;;;;;;;32.07;73.99;101866.81;5018255;28;20022;-61
2023/07/09 10:48:36;;;;;;;8.77;3.88;;;;;;;31.82;74.22;101874.09;5021690;28;20126;-62
2023/07/09 10:51:03;;;;;;;10.85;5.18;;;;;;;31.59;78.88;101885.63;5007358;28;20089;-65
2023/07/09 10:53:40;;;;;;;9.90;5.45;;;;;;;32.11;70.16;101909.03;5009247;28;20081;-64
2023/07/09 10:56:22;;;;;;;7.10;5.00;;;;;;;32.80;67.18;101925.19;5016834;28;20037;-64
2023/07/09 10:58:53;;;;;;;9.82;6.05;;;;;;;33.05;65.09;101930.59;5031441;28;20517;-68
2023/07/09 11:01:25;;;;;;;8.52;5.50;;;;;;;32.53;67.29;101928.97;5023335;28;20062;-66
2023/07/09 11:03:54;;;;;;;3.38;2.70;;;;;;;32.93;68.32;101911.00;5010847;28;20470;-68
2023/07/09 11:06:34;;;;;;;4.43;2.45;;;;;;;32.93;66.36;101909.13;5012161;28;20058;-67
2023/07/09 11:09:00;;;;;;;5.88;2.95;;;;;;;32.93;66.30;101906.41;5030513;28;20027;-66
2023/07/09 11:11:40;;;;;;;5.25;3.00;;;;;;;33.03;65.73;101919.81;5029608;28;20033;-67
2023/07/09 11:14:17;;;;;;;6.53;2.72;;;;;;;32.90;65.54;101912.19;5030687;28;20026;-68
2023/07/09 11:16:43;;;;;;;4.93;2.78;;;;;;;32.50;66.51;101912.97;5027970;28;20581;-68